createdAt,value
2023-02-11T00:02:25.667Z,52.99
2023-02-11T00:04:52.375Z,52.87
2023-02-11T00:07:19.011Z,53.39
2023-02-11T00:09:45.643Z,53.24
2023-02-11T00:12:12.299Z,52.96
2023-02-11T00:14:38.976Z,53.33
2023-02-11T00:17:05.638Z,52.78
2023-02-11T00:19:32.314Z,52.64
2023-02-11T00:21:58.963Z,51.83
2023-02-11T00:24:25.641Z,52.61
2023-02-11T00:26:52.302Z,53.02
2023-02-11T00:29:19.002Z,52.76
2023-02-11T00:31:45.760Z,52.52
2023-02-11T00:34:12.485Z,52.90
2023-02-11T00:36:39.176Z,53.39
2023-02-11T00:39:05.809Z,53.08
2023-02-11T00:41:32.459Z,52.77
2023-02-11T00:43:59.238Z,53.26
2023-02-11T00:46:25.952Z,53.92
2023-02-11T00:48:52.687Z,53.79
2023-02-11T00:51:19.348Z,52.95
2023-02-11T00:53:46.041Z,53.32
2023-02-11T00:56:12.767Z,53.58
2023-02-11T00:58:39.428Z,53.65
2023-02-11T01:01:06.107Z,52.98
2023-02-11T01:03:32.800Z,52.88
2023-02-11T01:05:59.490Z,53.18
2023-02-11T01:08:26.237Z,52.89
2023-02-11T01:11:00.119Z,53.18
2023-02-11T01:13:27.057Z,52.93
2023-02-11T01:15:53.975Z,52.95
2023-02-11T01:18:20.763Z,52.48
2023-02-11T01:20:47.430Z,52.49
2023-02-11T01:23:14.095Z,51.83
2023-02-11T01:25:40.749Z,52.12
2023-02-11T01:28:07.465Z,51.71
2023-02-11T01:30:34.161Z,50.53
2023-02-11T01:33:00.816Z,49.46
2023-02-11T01:35:27.479Z,50.56
2023-02-11T01:37:54.123Z,51.23
2023-02-11T01:40:20.825Z,52.00
2023-02-11T01:42:49.996Z,51.92
2023-02-11T01:45:45.313Z,52.76
2023-02-11T01:48:16.007Z,52.29
2023-02-11T01:50:42.665Z,52.35
2023-02-11T01:53:09.327Z,52.29
2023-02-11T01:55:35.995Z,51.16
2023-02-11T01:58:02.873Z,50.09
2023-02-11T02:00:38.071Z,49.36
2023-02-11T02:03:13.230Z,49.05
2023-02-11T02:05:51.108Z,49.35
2023-02-11T02:08:27.114Z,49.56
2023-02-11T02:10:53.748Z,49.52
2023-02-11T02:13:20.494Z,50.52
2023-02-11T02:16:04.517Z,50.88
2023-02-11T02:18:37.160Z,51.02
2023-02-11T02:21:38.637Z,50.74
2023-02-11T02:24:38.543Z,51.89
2023-02-11T02:27:32.391Z,52.93
2023-02-11T02:30:27.090Z,52.57
2023-02-11T02:33:21.951Z,53.68
2023-02-11T02:36:13.108Z,53.65
2023-02-11T02:38:51.092Z,53.96
2023-02-11T02:41:19.358Z,52.75
2023-02-11T02:43:48.352Z,52.33
2023-02-11T02:46:21.234Z,52.75
2023-02-11T02:48:48.055Z,53.29
2023-02-11T02:51:39.845Z,53.55
2023-02-11T02:54:31.293Z,53.21
2023-02-11T02:57:36.818Z,53.97
2023-02-11T03:00:12.570Z,54.01
2023-02-11T03:03:05.393Z,54.84
2023-02-11T03:05:48.979Z,54.73
2023-02-11T03:08:34.354Z,54.23
2023-02-11T03:11:01.307Z,54.12
2023-02-11T03:13:30.022Z,54.45
2023-02-11T03:15:57.414Z,54.90
2023-02-11T03:18:26.221Z,55.41
2023-02-11T03:20:53.167Z,55.09
2023-02-11T03:23:34.959Z,55.31
2023-02-11T03:26:25.279Z,55.27
2023-02-11T03:28:56.064Z,55.28
2023-02-11T03:31:37.095Z,54.99
2023-02-11T03:34:31.484Z,54.74
2023-02-11T03:37:02.101Z,54.76
2023-02-11T03:39:44.697Z,54.85
2023-02-11T03:42:11.368Z,55.24
2023-02-11T03:44:41.952Z,54.92
2023-02-11T03:47:09.324Z,55.23
2023-02-11T03:49:36.124Z,54.98
2023-02-11T03:52:02.797Z,54.83
2023-02-11T03:54:30.282Z,54.57
2023-02-11T03:56:58.557Z,55.05
2023-02-11T03:59:25.438Z,54.64
2023-02-11T04:01:52.102Z,54.22
2023-02-11T04:04:18.782Z,53.55
2023-02-11T04:06:45.574Z,54.23
2023-02-11T04:09:12.347Z,54.21
2023-02-11T04:11:39.038Z,54.03
2023-02-11T04:14:05.680Z,54.29
2023-02-11T04:16:32.386Z,54.68
2023-02-11T04:18:59.152Z,54.25
2023-02-11T04:21:25.796Z,54.16
2023-02-11T04:23:52.486Z,54.21
2023-02-11T04:26:19.145Z,53.85
2023-02-11T04:28:45.778Z,53.81
2023-02-11T04:31:12.512Z,53.35
2023-02-11T04:33:39.203Z,53.29
2023-02-11T04:36:06.181Z,53.29
2023-02-11T04:38:32.816Z,53.22
2023-02-11T04:40:59.581Z,53.05
2023-02-11T04:43:26.302Z,53.01
2023-02-11T04:45:53.679Z,52.67
2023-02-11T04:48:20.501Z,52.43
2023-02-11T04:50:47.161Z,52.75
2023-02-11T04:53:13.811Z,52.58
2023-02-11T04:55:40.513Z,52.33
2023-02-11T04:58:07.179Z,52.83
2023-02-11T05:00:34.596Z,53.21
2023-02-11T05:03:01.372Z,52.66
2023-02-11T05:05:28.018Z,52.14
2023-02-11T05:07:54.672Z,51.80
2023-02-11T05:10:21.339Z,51.39
2023-02-11T05:12:48.779Z,52.26
2023-02-11T05:15:15.747Z,52.66
2023-02-11T05:17:42.416Z,52.09
2023-02-11T05:20:09.690Z,52.53
2023-02-11T05:22:36.390Z,52.58
2023-02-11T05:25:03.067Z,52.83
2023-02-11T05:27:29.719Z,52.24
2023-02-11T05:29:56.355Z,51.62
2023-02-11T05:32:23.051Z,50.17
2023-02-11T05:34:49.698Z,49.70
2023-02-11T05:37:16.819Z,48.50
2023-02-11T05:39:43.469Z,48.38
2023-02-11T05:42:10.172Z,49.43
2023-02-11T05:44:36.805Z,49.39
2023-02-11T05:47:03.555Z,50.00
2023-02-11T05:49:30.431Z,50.18
2023-02-11T05:51:57.467Z,50.06
2023-02-11T05:54:25.289Z,50.14
2023-02-11T05:56:51.948Z,50.88
2023-02-11T05:59:18.615Z,50.94
2023-02-11T06:01:45.251Z,51.46
2023-02-11T06:04:11.905Z,51.95
2023-02-11T06:06:38.644Z,52.25
2023-02-11T06:09:05.318Z,52.66
2023-02-11T06:11:32.009Z,52.88
2023-02-11T06:13:58.660Z,52.35
2023-02-11T06:16:25.766Z,52.74
2023-02-11T06:18:53.304Z,52.55
2023-02-11T06:21:21.936Z,52.69
2023-02-11T06:23:49.653Z,52.34
2023-02-11T06:26:22.283Z,52.22
2023-02-11T06:28:49.893Z,52.29
2023-02-11T06:31:17.622Z,52.47
2023-02-11T06:33:46.280Z,52.60
2023-02-11T06:36:16.011Z,52.35
2023-02-11T06:38:43.650Z,52.51
2023-02-11T06:41:14.014Z,52.24
2023-02-11T06:43:42.915Z,52.60
2023-02-11T06:46:09.666Z,53.03
2023-02-11T06:48:38.122Z,52.93
2023-02-11T06:51:06.725Z,53.15
2023-02-11T06:53:38.411Z,53.11
2023-02-11T06:56:06.002Z,53.11
2023-02-11T06:58:32.708Z,53.03
2023-02-11T07:01:00.194Z,53.21
2023-02-11T07:03:28.803Z,53.01
2023-02-11T07:05:56.393Z,52.89
2023-02-11T07:08:24.000Z,52.73
2023-02-11T07:10:51.581Z,52.88
2023-02-11T07:13:18.292Z,52.40
2023-02-11T07:15:45.872Z,52.69
2023-02-11T07:18:14.720Z,52.53
2023-02-11T07:20:41.956Z,53.14
2023-02-11T07:23:09.558Z,52.54
2023-02-11T07:25:37.154Z,52.50
2023-02-11T07:28:03.920Z,52.38
2023-02-11T07:30:30.597Z,52.44
2023-02-11T07:32:57.255Z,52.30
2023-02-11T07:35:23.884Z,52.29
2023-02-11T07:37:50.501Z,52.00
2023-02-11T07:40:17.139Z,51.95
2023-02-11T07:42:43.774Z,51.99
2023-02-11T07:45:10.436Z,51.33
2023-02-11T07:47:37.081Z,51.81
2023-02-11T07:50:03.719Z,51.12
2023-02-11T07:52:33.264Z,50.64
2023-02-11T07:54:59.916Z,50.46
2023-02-11T07:57:26.765Z,50.47
2023-02-11T07:59:53.488Z,50.23
2023-02-11T08:02:20.157Z,49.33
2023-02-11T08:04:47.046Z,49.63
2023-02-11T08:07:17.273Z,48.22
2023-02-11T08:09:43.956Z,45.70
2023-02-11T08:12:10.594Z,44.71
2023-02-11T08:14:37.302Z,43.88
2023-02-11T08:17:03.954Z,43.06
2023-02-11T08:19:30.690Z,43.34
2023-02-11T08:21:57.937Z,43.32
2023-02-11T08:24:24.581Z,42.98
2023-02-11T08:26:51.233Z,42.60
2023-02-11T08:29:17.872Z,43.23
2023-02-11T08:31:45.901Z,43.05
2023-02-11T08:34:12.903Z,41.68
2023-02-11T08:36:39.753Z,41.92
2023-02-11T08:39:18.592Z,38.01
2023-02-11T08:41:47.349Z,34.85
2023-02-11T08:44:14.041Z,36.25
2023-02-11T08:46:40.676Z,37.81
2023-02-11T08:49:07.420Z,38.60
2023-02-11T08:51:34.043Z,39.41
2023-02-11T08:54:00.675Z,39.80
2023-02-11T08:56:27.374Z,40.41
2023-02-11T08:58:54.491Z,39.69
2023-02-11T09:01:26.270Z,38.38
2023-02-11T09:03:53.015Z,38.29
2023-02-11T09:06:19.713Z,38.13
2023-02-11T09:08:47.901Z,38.29
2023-02-11T09:11:14.543Z,37.51
2023-02-11T09:13:41.936Z,37.74
2023-02-11T09:16:09.552Z,37.12
2023-02-11T09:18:36.471Z,34.84
2023-02-11T09:21:04.185Z,32.38
2023-02-11T09:23:30.850Z,30.28
2023-02-11T09:25:57.562Z,29.40
2023-02-11T09:28:24.248Z,27.71
2023-02-11T09:30:51.325Z,25.69
2023-02-11T09:33:18.161Z,24.33
2023-02-11T09:35:44.813Z,24.31
2023-02-11T09:38:11.440Z,22.70
2023-02-11T09:40:42.727Z,22.20
2023-02-11T09:43:19.420Z,22.41
2023-02-11T09:45:46.101Z,22.46
2023-02-11T09:48:17.731Z,22.74
2023-02-11T09:50:50.302Z,24.22
2023-02-11T09:53:27.541Z,25.97
2023-02-11T09:55:55.847Z,26.70
2023-02-11T09:58:27.873Z,27.46
2023-02-11T10:01:08.808Z,29.48
2023-02-11T10:03:35.375Z,30.35
2023-02-11T10:06:13.816Z,30.34
2023-02-11T10:09:02.136Z,33.01
2023-02-11T10:11:53.530Z,33.17
2023-02-11T10:14:29.871Z,33.34
2023-02-11T10:17:18.977Z,34.09
2023-02-11T10:19:54.613Z,34.83
2023-02-11T10:22:36.795Z,35.85
2023-02-11T10:25:16.473Z,36.26
2023-02-11T10:27:43.107Z,35.79
2023-02-11T10:30:18.668Z,37.10
2023-02-11T10:32:48.650Z,37.35
2023-02-11T10:35:20.254Z,38.16
2023-02-11T10:37:47.112Z,37.93
2023-02-11T10:40:17.900Z,37.84
2023-02-11T10:42:47.104Z,39.10
2023-02-11T10:45:31.836Z,39.24
2023-02-11T10:48:00.862Z,39.76
2023-02-11T10:50:31.484Z,39.73
2023-02-11T10:53:17.280Z,39.52
2023-02-11T10:55:57.789Z,40.06
2023-02-11T10:58:45.223Z,39.67
2023-02-11T11:01:23.846Z,40.12
2023-02-11T11:03:52.084Z,40.98
2023-02-11T11:06:31.478Z,42.30
2023-02-11T11:08:58.192Z,41.94
2023-02-11T11:11:25.357Z,42.96
2023-02-11T11:13:57.477Z,43.70
2023-02-11T11:16:32.767Z,45.28
2023-02-11T11:19:08.300Z,44.52
2023-02-11T11:21:45.051Z,44.75
2023-02-11T11:24:34.976Z,45.88
2023-02-11T11:27:02.655Z,45.15
2023-02-11T11:29:29.136Z,45.56
2023-02-11T11:32:03.439Z,46.74
2023-02-11T11:34:32.172Z,45.64
2023-02-11T11:36:59.617Z,45.44
2023-02-11T11:39:32.797Z,45.30
2023-02-11T11:42:24.127Z,46.22
2023-02-11T11:45:04.133Z,45.92
2023-02-11T11:47:53.533Z,46.97
2023-02-11T11:50:26.137Z,46.23
2023-02-11T11:53:00.264Z,46.18
2023-02-11T11:55:45.274Z,46.36
2023-02-11T11:58:21.969Z,47.12
2023-02-11T12:00:53.803Z,46.41
2023-02-11T12:03:44.545Z,46.84
2023-02-11T12:06:21.114Z,48.15
2023-02-11T12:09:02.381Z,48.19
2023-02-11T12:12:07.911Z,48.40
2023-02-11T12:15:04.305Z,48.87
2023-02-11T12:17:38.239Z,50.21
2023-02-11T12:20:16.945Z,49.81
2023-02-11T12:22:56.774Z,49.22
2023-02-11T12:25:46.761Z,50.38
2023-02-11T12:28:20.542Z,49.80
2023-02-11T12:31:21.790Z,50.13
2023-02-11T12:33:57.393Z,49.67
2023-02-11T12:36:23.890Z,50.11
2023-02-11T12:38:50.370Z,50.03
2023-02-11T12:41:32.685Z,50.24
2023-02-11T12:43:59.500Z,50.17
2023-02-11T12:46:43.242Z,50.22
2023-02-11T12:49:34.017Z,50.27
2023-02-11T12:52:08.355Z,50.51
2023-02-11T12:54:36.900Z,50.86
2023-02-11T12:57:03.946Z,50.35
2023-02-11T13:00:07.735Z,50.23
2023-02-11T13:02:36.610Z,49.92
2023-02-11T13:05:31.782Z,50.08
2023-02-11T13:08:12.645Z,48.75
2023-02-11T13:10:41.138Z,51.20
2023-02-11T13:13:37.258Z,49.60
2023-02-11T13:16:06.559Z,50.65
2023-02-11T13:18:54.040Z,49.04
2023-02-11T13:21:34.838Z,48.83
2023-02-11T13:24:07.973Z,48.36
2023-02-11T13:27:02.128Z,47.42
2023-02-11T13:29:50.507Z,48.18
2023-02-11T13:32:17.156Z,47.98
2023-02-11T13:34:43.674Z,48.07
2023-02-11T13:37:36.164Z,47.42
2023-02-11T13:40:10.167Z,47.38
2023-02-11T13:42:50.989Z,47.92
2023-02-11T13:45:18.698Z,47.80
2023-02-11T13:47:45.332Z,47.08
2023-02-11T13:50:21.863Z,47.14
2023-02-11T13:52:48.503Z,47.19
2023-02-11T13:55:21.280Z,46.37
2023-02-11T13:58:05.926Z,46.02
2023-02-11T14:00:35.391Z,45.75
2023-02-11T14:03:11.003Z,46.09
2023-02-11T14:05:37.666Z,45.88
2023-02-11T14:08:09.908Z,46.52
2023-02-11T14:10:42.455Z,46.01
2023-02-11T14:13:25.112Z,45.79
2023-02-11T14:16:06.911Z,46.60
2023-02-11T14:18:37.446Z,46.90
2023-02-11T14:21:11.491Z,46.23
2023-02-11T14:23:38.146Z,45.95
2023-02-11T14:26:20.132Z,45.16
2023-02-11T14:28:54.479Z,45.05
2023-02-11T14:31:26.453Z,44.94
2023-02-11T14:34:21.383Z,45.11
2023-02-11T14:36:54.894Z,44.91
2023-02-11T14:40:00.877Z,44.34
2023-02-11T14:42:28.045Z,44.21
2023-02-11T14:45:02.847Z,44.62
2023-02-11T14:47:34.482Z,43.76
2023-02-11T14:50:01.123Z,44.63
2023-02-11T14:52:29.469Z,43.84
2023-02-11T14:55:17.788Z,44.75
2023-02-11T14:57:44.666Z,44.27
2023-02-11T15:00:16.560Z,44.90
2023-02-11T15:02:43.443Z,44.26
2023-02-11T15:05:21.913Z,44.32
2023-02-11T15:07:50.459Z,44.70
2023-02-11T15:10:19.074Z,44.99
2023-02-11T15:12:45.837Z,44.32
2023-02-11T15:15:12.488Z,44.62
2023-02-11T15:17:39.140Z,43.27
2023-02-11T15:20:06.597Z,43.52
2023-02-11T15:22:33.757Z,43.70
2023-02-11T15:25:08.743Z,44.92
2023-02-11T15:27:44.379Z,44.29
2023-02-11T15:30:23.929Z,43.96
2023-02-11T15:32:51.236Z,44.33
2023-02-11T15:35:18.158Z,44.90
2023-02-11T15:37:44.878Z,45.09
2023-02-11T15:40:12.362Z,45.09
2023-02-11T15:42:52.132Z,44.89
2023-02-11T15:45:19.588Z,45.69
2023-02-11T15:47:51.113Z,44.84
2023-02-11T15:50:31.641Z,45.22
2023-02-11T15:53:00.498Z,45.21
2023-02-11T15:55:27.148Z,44.92
2023-02-11T15:57:55.341Z,45.28
2023-02-11T16:00:23.833Z,45.05
2023-02-11T16:02:50.479Z,45.45
2023-02-11T16:05:31.817Z,45.04
2023-02-11T16:07:58.738Z,45.57
2023-02-11T16:10:29.355Z,45.55
2023-02-11T16:13:05.769Z,45.81
2023-02-11T16:15:35.282Z,45.67
2023-02-11T16:18:02.471Z,45.52
2023-02-11T16:20:29.130Z,45.31
2023-02-11T16:22:55.776Z,46.20
2023-02-11T16:25:23.228Z,45.92
2023-02-11T16:27:51.723Z,46.31
2023-02-11T16:30:23.820Z,46.07
2023-02-11T16:32:50.475Z,45.68
2023-02-11T16:35:17.177Z,45.07
2023-02-11T16:37:43.818Z,45.79
2023-02-11T16:40:11.849Z,45.89
2023-02-11T16:42:38.496Z,46.23
2023-02-11T16:45:06.700Z,46.76
2023-02-11T16:47:35.434Z,46.49
2023-02-11T16:50:02.268Z,46.68
2023-02-11T16:52:28.953Z,46.54
2023-02-11T16:54:55.607Z,46.29
2023-02-11T16:57:23.611Z,46.36
2023-02-11T16:59:50.335Z,47.13
2023-02-11T17:02:22.860Z,47.20
2023-02-11T17:04:50.567Z,48.39
2023-02-11T17:07:17.323Z,48.37
2023-02-11T17:09:44.704Z,49.22
2023-02-11T17:12:11.361Z,49.83
2023-02-11T17:14:38.022Z,50.08
2023-02-11T17:17:04.669Z,50.13
2023-02-11T17:19:31.336Z,50.70
2023-02-11T17:21:58.035Z,50.34
2023-02-11T17:24:24.669Z,50.24
2023-02-11T17:26:51.311Z,50.67
2023-02-11T17:29:22.516Z,50.65
2023-02-11T17:31:49.474Z,50.58
2023-02-11T17:34:16.554Z,50.95
2023-02-11T17:36:43.214Z,51.02
2023-02-11T17:39:09.861Z,51.19
2023-02-11T17:41:37.151Z,51.78
2023-02-11T17:44:04.038Z,52.05
2023-02-11T17:46:30.724Z,52.16
2023-02-11T17:48:58.240Z,52.37
2023-02-11T17:51:27.774Z,52.08
2023-02-11T17:53:54.444Z,52.83
2023-02-11T17:56:21.084Z,52.93
2023-02-11T17:58:47.781Z,52.92
2023-02-11T18:01:14.496Z,52.67
2023-02-11T18:03:41.199Z,52.75
2023-02-11T18:06:07.940Z,52.01
2023-02-11T18:08:34.893Z,52.85
2023-02-11T18:11:01.561Z,53.10
2023-02-11T18:13:28.289Z,52.99
2023-02-11T18:15:55.099Z,53.46
2023-02-11T18:18:21.761Z,53.11
2023-02-11T18:20:58.636Z,53.76
2023-02-11T18:23:25.477Z,53.45
2023-02-11T18:25:52.510Z,53.93
2023-02-11T18:28:19.374Z,54.45
2023-02-11T18:30:46.062Z,54.40
2023-02-11T18:33:12.749Z,54.42
2023-02-11T18:35:39.649Z,53.64
2023-02-11T18:38:06.322Z,53.91
2023-02-11T18:40:34.030Z,54.19
2023-02-11T18:43:00.654Z,54.09
2023-02-11T18:45:27.344Z,53.82
2023-02-11T18:47:54.107Z,54.56
2023-02-11T18:50:20.754Z,54.93
2023-02-11T18:52:47.790Z,55.29
2023-02-11T18:55:14.606Z,55.28
2023-02-11T18:57:41.260Z,55.23
2023-02-11T19:00:08.528Z,54.99
2023-02-11T19:02:35.407Z,55.54
2023-02-11T19:05:02.486Z,56.00
2023-02-11T19:07:29.410Z,55.59
2023-02-11T19:09:56.110Z,55.65
2023-02-11T19:12:22.780Z,56.50
2023-02-11T19:14:49.453Z,55.67
2023-02-11T19:17:16.101Z,56.14
2023-02-11T19:19:42.751Z,56.06
2023-02-11T19:22:10.804Z,55.60
2023-02-11T19:24:37.620Z,55.26
2023-02-11T19:27:04.360Z,55.29
2023-02-11T19:29:30.995Z,55.91
2023-02-11T19:31:57.715Z,56.35
2023-02-11T19:34:24.477Z,56.31
2023-02-11T19:36:51.145Z,56.61
2023-02-11T19:39:17.786Z,56.22
2023-02-11T19:41:44.499Z,57.50
2023-02-11T19:44:11.164Z,57.07
2023-02-11T19:46:38.479Z,57.71
2023-02-11T19:49:05.316Z,56.40
2023-02-11T19:51:31.965Z,56.72
2023-02-11T19:53:58.651Z,56.33
2023-02-11T19:56:25.523Z,56.52
2023-02-11T19:58:52.217Z,56.75
2023-02-11T20:01:19.913Z,56.24
2023-02-11T20:03:50.048Z,56.42
2023-02-11T20:06:20.459Z,55.95
2023-02-11T20:08:47.127Z,55.31
2023-02-11T20:11:16.524Z,55.75
2023-02-11T20:13:43.219Z,56.31
2023-02-11T20:16:12.027Z,56.50
2023-02-11T20:18:39.310Z,56.71
2023-02-11T20:21:07.594Z,57.33
2023-02-11T20:23:34.578Z,56.79
2023-02-11T20:26:12.805Z,56.71
2023-02-11T20:28:39.485Z,56.89
2023-02-11T20:31:06.398Z,56.49
2023-02-11T20:33:33.226Z,56.61
2023-02-11T20:36:01.723Z,56.57
2023-02-11T20:38:28.379Z,56.48
2023-02-11T20:40:55.103Z,56.54
2023-02-11T20:43:21.924Z,56.05
2023-02-11T20:45:48.622Z,55.95
2023-02-11T20:48:15.276Z,56.59
2023-02-11T20:50:41.948Z,56.72
2023-02-11T20:53:08.589Z,55.93
2023-02-11T20:55:37.466Z,56.71
2023-02-11T20:58:05.405Z,56.62
2023-02-11T21:00:32.060Z,56.82
2023-02-11T21:02:58.779Z,56.65
2023-02-11T21:05:25.457Z,57.14
2023-02-11T21:07:53.127Z,56.33
2023-02-11T21:10:19.850Z,56.24
2023-02-11T21:12:49.533Z,56.52
2023-02-11T21:15:16.533Z,57.10
2023-02-11T21:17:43.237Z,57.66
2023-02-11T21:20:10.244Z,56.51
2023-02-11T21:22:36.942Z,57.46
2023-02-11T21:25:03.716Z,56.96
2023-02-11T21:27:30.395Z,56.64
2023-02-11T21:29:57.067Z,55.87
2023-02-11T21:32:23.835Z,55.88
2023-02-11T21:34:50.558Z,56.79
2023-02-11T21:37:17.207Z,56.04
2023-02-11T21:39:43.862Z,55.44
2023-02-11T21:42:10.643Z,56.02
2023-02-11T21:44:37.324Z,56.02
2023-02-11T21:47:04.019Z,55.52
2023-02-11T21:49:30.717Z,55.52
2023-02-11T21:51:57.420Z,56.58
2023-02-11T21:54:24.165Z,55.71
2023-02-11T21:56:50.846Z,56.21
2023-02-11T21:59:17.501Z,55.77
2023-02-11T22:01:44.991Z,55.02
2023-02-11T22:04:11.859Z,55.60
2023-02-11T22:06:38.575Z,55.36
2023-02-11T22:09:06.525Z,55.20
2023-02-11T22:11:33.248Z,54.56
2023-02-11T22:13:59.931Z,54.34
2023-02-11T22:16:27.073Z,54.35
2023-02-11T22:18:53.821Z,54.63
2023-02-11T22:21:21.849Z,54.93
2023-02-11T22:23:48.672Z,55.35
2023-02-11T22:26:17.041Z,55.94
2023-02-11T22:28:43.780Z,55.92
2023-02-11T22:31:15.138Z,55.07
2023-02-11T22:33:41.866Z,54.08
2023-02-11T22:36:12.583Z,55.12
2023-02-11T22:38:39.242Z,54.94
2023-02-11T22:41:07.087Z,55.02
2023-02-11T22:43:33.754Z,54.17
2023-02-11T22:46:01.332Z,53.24
2023-02-11T22:48:28.023Z,54.14
2023-02-11T22:50:54.689Z,54.97
2023-02-11T22:53:21.338Z,54.23
2023-02-11T22:55:48.088Z,54.49
2023-02-11T22:58:14.720Z,55.37
2023-02-11T23:00:41.386Z,55.01
2023-02-11T23:03:08.175Z,54.45
2023-02-11T23:05:41.252Z,54.79
2023-02-11T23:08:08.718Z,55.07
2023-02-11T23:10:36.200Z,54.31
2023-02-11T23:13:03.560Z,54.43
2023-02-11T23:15:30.258Z,54.44
2023-02-11T23:17:56.932Z,54.75
2023-02-11T23:20:23.613Z,54.13
2023-02-11T23:22:50.251Z,54.60
2023-02-11T23:25:16.905Z,54.78
2023-02-11T23:27:43.576Z,55.08
2023-02-11T23:30:10.621Z,55.41
2023-02-11T23:32:40.022Z,55.40
2023-02-11T23:35:06.698Z,55.57
2023-02-11T23:37:33.375Z,55.06
2023-02-11T23:40:00.004Z,54.43
2023-02-11T23:42:26.643Z,55.48
2023-02-11T23:44:53.307Z,55.09
2023-02-11T23:47:19.948Z,54.17
2023-02-11T23:49:46.602Z,55.17
2023-02-11T23:52:13.249Z,54.23
2023-02-11T23:54:40.023Z,54.04
2023-02-11T23:57:06.696Z,54.28
2023-02-11T23:59:33.365Z,55.13
